Ohshima Kazumaru — JD2908 — position and weather

sailwx.info

Track history (hours):
 
Tides and Currents Weather Stations Pressure Air Temp Water Temp Dewpoint Dewpoint Depression Visibility Wind Speed Wind Dir Waves Ship Positions

Ohshima Kazumaru

Last reported at 2016-Feb-08 01:28 UTC. Time now 2016-Feb-08 02:01 UTC.
Position N 35°32' E 139°47'.

Length 69 m; draft 4 m.

Type: Cargo ship. MMSI: 431000925.

Date/timePositionNaut miles runAvg speedWind from/ knotsBaromVisibWave heightAir tempDewpointWater temp
2016-Feb-08 01:28N 35°32' E 139°47'0 0.0
2016-Feb-08 00:31N 35°32' E 139°47'0 0.0
2016-Feb-07 23:31N 35°32' E 139°47'0 0.0
2016-Feb-07 22:31N 35°32' E 139°47'0 0.0
2016-Feb-07 21:28N 35°32' E 139°47'0 0.0
2016-Feb-07 20:31N 35°32' E 139°47'0 0.0
2016-Feb-07 19:19N 35°32' E 139°47'0 0.0
2016-Feb-07 18:31N 35°32' E 139°47'0 0.0
2016-Feb-07 17:31N 35°32' E 139°47'0 0.0
2016-Feb-07 16:31N 35°32' E 139°47'0 0.0
2016-Feb-07 15:28N 35°32' E 139°47'0 0.0
2016-Feb-07 14:28N 35°32' E 139°47'0 0.0
2016-Feb-07 13:28N 35°32' E 139°47'0 0.0
2016-Feb-07 12:31N 35°32' E 139°47'0 0.0
2016-Feb-07 11:31N 35°32' E 139°47'0 0.0
2016-Feb-07 10:28N 35°32' E 139°47'0 0.0
2016-Feb-07 09:32N 35°32' E 139°47'0 0.0
2016-Feb-07 08:28N 35°32' E 139°47'2 1.9
2016-Feb-07 07:33N 35°30' E 139°48'1211.6
2016-Feb-07 06:34N 35°19' E 139°44'  
2016-Feb-02 18:21N 35°01' E 139°30'1212.5
2016-Feb-02 17:24N 35°07' E 139°42'1011.5
2016-Feb-02 16:33N 35°17' E 139°45'1110.7
2016-Feb-02 15:33N 35°27' E 139°47'4 4.3
2016-Feb-02 14:34N 35°32' E 139°47'0 0.0
2016-Feb-02 13:34N 35°32' E 139°47'0 0.0
2016-Feb-02 12:33N 35°32' E 139°47'0 0.0
2016-Feb-02 11:34N 35°32' E 139°47'0 0.0
2016-Feb-02 10:31N 35°32' E 139°47'0 0.0
2016-Feb-02 09:34N 35°32' E 139°47'0 0.0
2016-Feb-02 08:33N 35°32' E 139°47'0 0.0
2016-Feb-02 07:34N 35°32' E 139°47'0 0.0
2016-Feb-02 06:28N 35°32' E 139°47'0 0.0
2016-Feb-02 05:34N 35°32' E 139°47'0 0.0
2016-Feb-02 04:28N 35°32' E 139°47'0 0.0
2016-Feb-02 03:34N 35°32' E 139°47'0 0.0
2016-Feb-02 02:34N 35°32' E 139°47'0 0.0
2016-Feb-02 01:30N 35°32' E 139°47'0 0.0
2016-Feb-02 00:30N 35°32' E 139°47'0 0.0
2016-Feb-01 23:34N 35°32' E 139°47'0 0.0
2016-Feb-01 22:28N 35°32' E 139°47'0 0.0
2016-Feb-01 21:33N 35°32' E 139°47'0 0.0
2016-Feb-01 20:31N 35°32' E 139°47'0 0.0
2016-Feb-01 19:34N 35°32' E 139°47'0 0.0
2016-Feb-01 18:30N 35°32' E 139°47'0 0.0
2016-Feb-01 17:33N 35°32' E 139°47'0 0.0
2016-Feb-01 16:34N 35°32' E 139°47'0 0.0
2016-Feb-01 15:33N 35°32' E 139°47'0 0.0
2016-Feb-01 14:31N 35°32' E 139°47'0 0.0
2016-Feb-01 13:34N 35°32' E 139°47'0 0.0
2016-Feb-01 12:33N 35°32' E 139°47'0 0.0
2016-Feb-01 11:34N 35°32' E 139°47'0 0.0
2016-Feb-01 10:34N 35°32' E 139°47'0 0.0
2016-Feb-01 09:31N 35°32' E 139°47'0 0.0
2016-Feb-01 08:33N 35°32' E 139°47'0 0.0
2016-Feb-01 07:33N 35°32' E 139°47'0 0.0
2016-Feb-01 06:31N 35°32' E 139°47'0 0.0
2016-Feb-01 05:34N 35°32' E 139°47'0 0.0
2016-Feb-01 04:34N 35°32' E 139°47'0 0.0
2016-Feb-01 03:30N 35°32' E 139°47'0 0.0
2016-Feb-01 02:34N 35°32' E 139°47'0 0.0
2016-Feb-01 01:34N 35°32' E 139°47'0 0.0
2016-Feb-01 00:34N 35°32' E 139°47'0 0.0
2016-Jan-31 23:34N 35°32' E 139°47'2 2.3
2016-Jan-31 22:33N 35°31' E 139°50'0 0.1
2016-Jan-31 21:33N 35°31' E 139°50'3 3.3
2016-Jan-31 20:33N 35°28' E 139°48'1111.0
2016-Jan-31 19:33N 35°17' E 139°45'1110.9
2016-Jan-31 18:33N 35°06' E 139°46'  
Track history (hours):
 
Tides and Currents Weather Stations Pressure Air Temp Water Temp Dewpoint Dewpoint Depression Visibility Wind Speed Wind Dir Waves Ship Positions

Ohshima Kazumaru

Last reported at 2016-Feb-08 01:28 UTC. Time now 2016-Feb-08 02:01 UTC.
Position N 35°32' E 139°47'.

Length 69 m; draft 4 m.

Type: Cargo ship. MMSI: 431000925.

Date/timePositionNaut miles runAvg speedWind from/ knotsBaromVisibWave heightAir tempDewpointWater temp
2016-Feb-08 01:28N 35°32' E 139°47'0 0.0
2016-Feb-08 00:31N 35°32' E 139°47'0 0.0
2016-Feb-07 23:31N 35°32' E 139°47'0 0.0
2016-Feb-07 22:31N 35°32' E 139°47'0 0.0
2016-Feb-07 21:28N 35°32' E 139°47'0 0.0
2016-Feb-07 20:31N 35°32' E 139°47'0 0.0
2016-Feb-07 19:19N 35°32' E 139°47'0 0.0
2016-Feb-07 18:31N 35°32' E 139°47'0 0.0
2016-Feb-07 17:31N 35°32' E 139°47'0 0.0
2016-Feb-07 16:31N 35°32' E 139°47'0 0.0
2016-Feb-07 15:28N 35°32' E 139°47'0 0.0
2016-Feb-07 14:28N 35°32' E 139°47'0 0.0
2016-Feb-07 13:28N 35°32' E 139°47'0 0.0
2016-Feb-07 12:31N 35°32' E 139°47'0 0.0
2016-Feb-07 11:31N 35°32' E 139°47'0 0.0
2016-Feb-07 10:28N 35°32' E 139°47'0 0.0
2016-Feb-07 09:32N 35°32' E 139°47'0 0.0
2016-Feb-07 08:28N 35°32' E 139°47'2 1.9
2016-Feb-07 07:33N 35°30' E 139°48'1211.6
2016-Feb-07 06:34N 35°19' E 139°44'  
2016-Feb-02 18:21N 35°01' E 139°30'1212.5
2016-Feb-02 17:24N 35°07' E 139°42'1011.5
2016-Feb-02 16:33N 35°17' E 139°45'1110.7
2016-Feb-02 15:33N 35°27' E 139°47'4 4.3
2016-Feb-02 14:34N 35°32' E 139°47'0 0.0
2016-Feb-02 13:34N 35°32' E 139°47'0 0.0
2016-Feb-02 12:33N 35°32' E 139°47'0 0.0
2016-Feb-02 11:34N 35°32' E 139°47'0 0.0
2016-Feb-02 10:31N 35°32' E 139°47'0 0.0
2016-Feb-02 09:34N 35°32' E 139°47'0 0.0
2016-Feb-02 08:33N 35°32' E 139°47'0 0.0
2016-Feb-02 07:34N 35°32' E 139°47'0 0.0
2016-Feb-02 06:28N 35°32' E 139°47'0 0.0
2016-Feb-02 05:34N 35°32' E 139°47'0 0.0
2016-Feb-02 04:28N 35°32' E 139°47'0 0.0
2016-Feb-02 03:34N 35°32' E 139°47'0 0.0
2016-Feb-02 02:34N 35°32' E 139°47'0 0.0
2016-Feb-02 01:30N 35°32' E 139°47'0 0.0
2016-Feb-02 00:30N 35°32' E 139°47'0 0.0
2016-Feb-01 23:34N 35°32' E 139°47'0 0.0
2016-Feb-01 22:28N 35°32' E 139°47'0 0.0
2016-Feb-01 21:33N 35°32' E 139°47'0 0.0
2016-Feb-01 20:31N 35°32' E 139°47'0 0.0
2016-Feb-01 19:34N 35°32' E 139°47'0 0.0
2016-Feb-01 18:30N 35°32' E 139°47'0 0.0
2016-Feb-01 17:33N 35°32' E 139°47'0 0.0
2016-Feb-01 16:34N 35°32' E 139°47'0 0.0
2016-Feb-01 15:33N 35°32' E 139°47'0 0.0
2016-Feb-01 14:31N 35°32' E 139°47'0 0.0
2016-Feb-01 13:34N 35°32' E 139°47'0 0.0
2016-Feb-01 12:33N 35°32' E 139°47'0 0.0
2016-Feb-01 11:34N 35°32' E 139°47'0 0.0
2016-Feb-01 10:34N 35°32' E 139°47'0 0.0
2016-Feb-01 09:31N 35°32' E 139°47'0 0.0
2016-Feb-01 08:33N 35°32' E 139°47'0 0.0
2016-Feb-01 07:33N 35°32' E 139°47'0 0.0
2016-Feb-01 06:31N 35°32' E 139°47'0 0.0
2016-Feb-01 05:34N 35°32' E 139°47'0 0.0
2016-Feb-01 04:34N 35°32' E 139°47'0 0.0
2016-Feb-01 03:30N 35°32' E 139°47'0 0.0
2016-Feb-01 02:34N 35°32' E 139°47'0 0.0
2016-Feb-01 01:34N 35°32' E 139°47'0 0.0
2016-Feb-01 00:34N 35°32' E 139°47'0 0.0
2016-Jan-31 23:34N 35°32' E 139°47'2 2.3
2016-Jan-31 22:33N 35°31' E 139°50'0 0.1
2016-Jan-31 21:33N 35°31' E 139°50'3 3.3
2016-Jan-31 20:33N 35°28' E 139°48'1111.0
2016-Jan-31 19:33N 35°17' E 139°45'1110.9
2016-Jan-31 18:33N 35°06' E 139°46'  

Dump ship's entire track history